CheckWX is a tool to help pilots better visualize weather data.  It is not intended as a substitute for an official pre-flight weather briefing.

18:57:34 UTC

KBGR METAR
Bangor International Airport
Bangor, Maine, USA
Current

1 hour ago

KBGR 221753Z 30008G15KT 10SM FEW040 01/M10 A3023 RMK AO2 SLP238 4/009 T00111100 10011 21044 58003
Observed
Feb-22 @ 17:53 UTC
Wind
  • 300° at 8 KTS
  • Gusting to KTS
Visibility
10 SM
Flight Rules
VFR
Cloud Levels
  • Few at 4,000' AGL
Temperature
C / 34°F
Dewpoint
-10°C / 14°F
Humidity
44%
Altimeter
30.23" Hg
Pressure
1023.8 hPa
Snow Depth
9"
Previous

2 hours ago

KBGR 221653Z 32007KT 10SM SCT040 00/M08 A3024 RMK AO2 SLP242 T00001083
Observed
Feb-22 @ 16:53 UTC
Wind
  • 320° at 7 KTS
Visibility
10 SM
Flight Rules
VFR
Cloud Levels
  • Scattered at 4,000' AGL
Temperature
C / 32°F
Dewpoint
-8°C / 18°F
Humidity
55%
Altimeter
30.24" Hg
Pressure
1024.2 hPa
Previous

3 hours ago

KBGR 221553Z 33014KT 10SM SCT045 M01/M09 A3026 RMK AO2 SLP249 T10111094
Observed
Feb-22 @ 15:53 UTC
Wind
  • 330° at 14 KTS
Visibility
10 SM
Flight Rules
VFR
Cloud Levels
  • Scattered at 4,500' AGL
Temperature
-1°C / 30°F
Dewpoint
-9°C / 16°F
Humidity
55%
Altimeter
30.26" Hg
Pressure
1024.9 hPa